Sandra Hugh — WDD9019 — position and weather

sailwx.info

Track history (hours):
 
Tides and Currents Weather Stations Pressure Air Temp Water Temp Dewpoint Dewpoint Depression Visibility Wind Speed Wind Dir Waves Ship Positions

Sandra Hugh

More information available from US FCC via Universal Licensing System and Coast Guard Vessel Documentation Center.

Last reported at 2014-Aug-29 19:29 UTC. Time now 2014-Aug-29 20:28 UTC.
Position N 37°49' W 122°19'.

Length 24 m; draft 4.9 m.

Type: Tug. MMSI: 367305920.

Date/timePositionNaut miles runAvg speedWind from/ knotsBaromVisibWave heightAir tempDewpointWater temp
2014-Aug-29 19:29N 37°49' W 122°19'0 0.0
2014-Aug-29 18:32N 37°49' W 122°19'0 0.0
2014-Aug-29 17:32N 37°49' W 122°19'0 0.0
2014-Aug-29 16:32N 37°49' W 122°19'0 0.0
2014-Aug-29 15:32N 37°49' W 122°19'0 0.0
2014-Aug-29 14:32N 37°49' W 122°19'0 0.2
2014-Aug-29 13:34N 37°49' W 122°19'2 1.9
2014-Aug-29 12:33N 37°48' W 122°18'2 1.7
2014-Aug-29 11:33N 37°48' W 122°20'7 7.3
2014-Aug-29 10:33N 37°54' W 122°24'1 0.6
2014-Aug-29 09:29N 37°54' W 122°23'0 0.0
2014-Aug-29 08:32N 37°54' W 122°23'0 0.0
2014-Aug-29 07:26N 37°54' W 122°23'0 0.0
2014-Aug-29 06:32N 37°54' W 122°23'0 0.0
2014-Aug-29 05:32N 37°54' W 122°23'0 0.0
2014-Aug-29 04:29N 37°54' W 122°23'0 0.0
2014-Aug-29 03:32N 37°54' W 122°23'0 0.0
2014-Aug-29 02:29N 37°54' W 122°23'0 0.0
2014-Aug-29 01:29N 37°54' W 122°23'3 3.5
2014-Aug-29 00:33N 37°57' W 122°26'9 9.3
2014-Aug-28 23:33N 38°03' W 122°17'8 7.9
2014-Aug-28 22:29N 38°03' W 122°07'11 8.1
2014-Aug-28 21:11N 38°03' W 121°53'12 0.2
2014-Aug-26 17:29N 38°02' W 122°08'8 9.0
2014-Aug-26 16:33N 38°03' W 122°19'9 9.4
2014-Aug-26 15:33N 37°55' W 122°25'8 7.2
2014-Aug-26 14:27N 37°49' W 122°20'3 3.0
2014-Aug-26 13:33N 37°48' W 122°23'2 1.6
2014-Aug-26 12:33N 37°48' W 122°21'2 2.1
2014-Aug-26 11:31N 37°49' W 122°19'0 0.0
2014-Aug-26 10:31N 37°49' W 122°19'0 0.0
2014-Aug-26 09:31N 37°49' W 122°19'0 0.0
2014-Aug-26 08:31N 37°49' W 122°19'0 0.0
2014-Aug-26 07:31N 37°49' W 122°19'0 0.0
2014-Aug-26 06:31N 37°49' W 122°19'0 0.0
2014-Aug-26 05:31N 37°49' W 122°19'0 0.0
2014-Aug-26 04:31N 37°49' W 122°19'0 0.0
2014-Aug-26 03:31N 37°49' W 122°19'0 0.0
2014-Aug-26 02:28N 37°49' W 122°19'0 0.0
2014-Aug-26 01:31N 37°49' W 122°19'2 1.4
2014-Aug-26 00:26N 37°48' W 122°19'2 1.6
2014-Aug-25 23:28N 37°48' W 122°17'4 4.1
2014-Aug-25 22:29N 37°48' W 122°22'3 2.9
2014-Aug-25 21:29N 37°49' W 122°19'0 0.0
2014-Aug-25 20:32N 37°49' W 122°19'0 0.0
2014-Aug-25 19:29N 37°49' W 122°19'0 0.0
2014-Aug-25 18:29N 37°49' W 122°19'0 0.0
2014-Aug-25 17:32N 37°49' W 122°19'0 0.0
2014-Aug-25 16:29N 37°49' W 122°19'2 1.7
2014-Aug-25 15:33N 37°49' W 122°20'8 7.6
2014-Aug-25 14:32N 37°55' W 122°25'1 0.5
2014-Aug-25 12:33N 37°55' W 122°25'7 7.3
2014-Aug-25 11:33N 37°49' W 122°19'1 0.6
2014-Aug-25 10:29N 37°49' W 122°19'0 0.0
2014-Aug-25 09:29N 37°49' W 122°19'0 0.0
2014-Aug-25 08:29N 37°49' W 122°19'0 0.0
2014-Aug-25 07:32N 37°49' W 122°19'0 0.0
2014-Aug-25 06:32N 37°49' W 122°19'0 0.0
2014-Aug-25 05:29N 37°49' W 122°19'0 0.0
2014-Aug-25 04:26N 37°49' W 122°19'0 0.0
2014-Aug-25 03:32N 37°49' W 122°19'0 0.0
2014-Aug-25 02:32N 37°49' W 122°19'4 4.0
2014-Aug-25 01:33N 37°51' W 122°23'1010.2
2014-Aug-25 00:33N 38°01' W 122°23'8 5.3
2014-Aug-24 23:06N 38°04' W 122°14'6 3.9
2014-Aug-24 21:26N 38°02' W 122°22'8 9.4
2014-Aug-24 20:33N 37°54' W 122°25'7 6.9
2014-Aug-24 19:33N 37°49' W 122°19'0 0.0
2014-Aug-24 18:33N 37°49' W 122°19'0 0.0
2014-Aug-24 17:33N 37°49' W 122°19'0 0.0
2014-Aug-24 16:30N 37°49' W 122°19'0 0.0
2014-Aug-24 15:33N 37°49' W 122°19'0 0.0
2014-Aug-24 14:33N 37°49' W 122°19'0 0.0
2014-Aug-24 13:31N 37°49' W 122°19'2 2.2
2014-Aug-24 12:33N 37°48' W 122°21'2 2.0
2014-Aug-24 11:29N 37°49' W 122°19'0 0.0
2014-Aug-24 10:32N 37°49' W 122°19'0 0.0
2014-Aug-24 09:32N 37°49' W 122°19'0 0.0
2014-Aug-24 08:32N 37°49' W 122°19'0 0.0
2014-Aug-24 07:32N 37°49' W 122°19'0 0.0
2014-Aug-24 06:17N 37°49' W 122°19'0 0.0
2014-Aug-24 05:26N 37°49' W 122°19'0 0.0
2014-Aug-24 04:29N 37°49' W 122°19'1 0.8
2014-Aug-24 03:28N 37°49' W 122°19'1 1.0
2014-Aug-24 02:33N 37°48' W 122°19'1 1.0
2014-Aug-24 01:33N 37°48' W 122°21'1 1.4
2014-Aug-24 00:30N 37°49' W 122°19'1 0.6
2014-Aug-23 23:33N 37°49' W 122°19'0 0.0
2014-Aug-23 22:27N 37°49' W 122°19'0 0.0
2014-Aug-23 21:33N 37°49' W 122°19'0 0.0
2014-Aug-23 20:27N 37°49' W 122°19'0 0.0
2014-Aug-23 19:27N 37°49' W 122°19'0 0.0
2014-Aug-23 03:27N 37°49' W 122°19'0 0.0
2014-Aug-23 02:33N 37°49' W 122°19'0 0.0
2014-Aug-23 01:33N 37°49' W 122°19'0 0.0
2014-Aug-23 00:33N 37°49' W 122°19'0 0.0
2014-Aug-22 23:27N 37°49' W 122°19'0 0.0
2014-Aug-22 22:33N 37°49' W 122°19'0 0.0
2014-Aug-22 21:27N 37°49' W 122°19'0 0.0
2014-Aug-22 20:33N 37°49' W 122°19'0 0.0
2014-Aug-22 19:33N 37°49' W 122°19'0 0.0
2014-Aug-22 18:33N 37°49' W 122°19'0 0.0
2014-Aug-22 17:27N 37°49' W 122°19'0 0.0
2014-Aug-22 16:33N 37°49' W 122°19'0 0.0
2014-Aug-22 15:33N 37°49' W 122°19'0 0.0
2014-Aug-22 14:33N 37°49' W 122°19'0 0.0
2014-Aug-22 13:33N 37°49' W 122°19'2 1.6
2014-Aug-22 12:31N 37°48' W 122°19'0 0.5
2014-Aug-22 11:34N 37°48' W 122°19'1 1.2
2014-Aug-22 10:34N 37°49' W 122°19'1 0.5
2014-Aug-22 09:31N 37°49' W 122°19'0 0.0
2014-Aug-22 08:31N 37°49' W 122°19'0 0.0
2014-Aug-22 07:31N 37°49' W 122°19'0 0.0
2014-Aug-22 06:31N 37°49' W 122°19'0 0.0
2014-Aug-22 05:31N 37°49' W 122°19'0 0.0
2014-Aug-22 04:31N 37°49' W 122°19'0 0.0
2014-Aug-22 03:31N 37°49' W 122°19'0 0.0
2014-Aug-22 02:31N 37°49' W 122°19'0 0.0
2014-Aug-22 01:31N 37°49' W 122°19'0 0.0
2014-Aug-22 00:31N 37°49' W 122°19'0 0.0
2014-Aug-21 23:31N 37°49' W 122°19'0 0.0
2014-Aug-21 22:31N 37°49' W 122°19'0 0.0
2014-Aug-21 21:31N 37°49' W 122°19'0 0.0
2014-Aug-21 20:31N 37°49' W 122°19'0 0.0
2014-Aug-21 19:31N 37°49' W 122°19'0 0.0
2014-Aug-21 18:31N 37°49' W 122°19'0 0.0
2014-Aug-21 17:28N 37°49' W 122°19'0 0.0
2014-Aug-21 16:28N 37°49' W 122°19'0 0.0
2014-Aug-21 15:31N 37°49' W 122°19'0 0.0
2014-Aug-21 14:31N 37°49' W 122°19'4 3.8
2014-Aug-21 13:33N 37°51' W 122°23'4 4.0
2014-Aug-21 12:32N 37°55' W 122°22'1 1.1
2014-Aug-21 11:32N 37°54' W 122°23'0 0.0
2014-Aug-21 10:32N 37°54' W 122°23'0 0.0
2014-Aug-21 09:26N 37°54' W 122°23'0 0.0
2014-Aug-21 08:32N 37°54' W 122°23'0 0.0
2014-Aug-21 07:32N 37°54' W 122°23'0 0.0
2014-Aug-21 06:32N 37°54' W 122°23'0 0.0
2014-Aug-21 05:32N 37°54' W 122°23'0 0.0
2014-Aug-21 04:32N 37°54' W 122°23'0 0.0
2014-Aug-21 03:29N 37°54' W 122°23'1 1.6
2014-Aug-21 02:33N 37°55' W 122°25'7 6.6
2014-Aug-21 01:26N 38°02' W 122°21'11 0.9
2014-Aug-20 14:13N 38°02' W 122°08'1 0.0
2014-Aug-20 01:32N 38°02' W 122°09'8 1.3
2014-Aug-19 19:33N 38°03' W 122°19'  
Track history (hours):
 
Tides and Currents Weather Stations Pressure Air Temp Water Temp Dewpoint Dewpoint Depression Visibility Wind Speed Wind Dir Waves Ship Positions

Sandra Hugh

More information available from US FCC via Universal Licensing System and Coast Guard Vessel Documentation Center.

Last reported at 2014-Aug-29 19:29 UTC. Time now 2014-Aug-29 20:28 UTC.
Position N 37°49' W 122°19'.

Length 24 m; draft 4.9 m.

Type: Tug. MMSI: 367305920.

Date/timePositionNaut miles runAvg speedWind from/ knotsBaromVisibWave heightAir tempDewpointWater temp
2014-Aug-29 19:29N 37°49' W 122°19'0 0.0
2014-Aug-29 18:32N 37°49' W 122°19'0 0.0
2014-Aug-29 17:32N 37°49' W 122°19'0 0.0
2014-Aug-29 16:32N 37°49' W 122°19'0 0.0
2014-Aug-29 15:32N 37°49' W 122°19'0 0.0
2014-Aug-29 14:32N 37°49' W 122°19'0 0.2
2014-Aug-29 13:34N 37°49' W 122°19'2 1.9
2014-Aug-29 12:33N 37°48' W 122°18'2 1.7
2014-Aug-29 11:33N 37°48' W 122°20'7 7.3
2014-Aug-29 10:33N 37°54' W 122°24'1 0.6
2014-Aug-29 09:29N 37°54' W 122°23'0 0.0
2014-Aug-29 08:32N 37°54' W 122°23'0 0.0
2014-Aug-29 07:26N 37°54' W 122°23'0 0.0
2014-Aug-29 06:32N 37°54' W 122°23'0 0.0
2014-Aug-29 05:32N 37°54' W 122°23'0 0.0
2014-Aug-29 04:29N 37°54' W 122°23'0 0.0
2014-Aug-29 03:32N 37°54' W 122°23'0 0.0
2014-Aug-29 02:29N 37°54' W 122°23'0 0.0
2014-Aug-29 01:29N 37°54' W 122°23'3 3.5
2014-Aug-29 00:33N 37°57' W 122°26'9 9.3
2014-Aug-28 23:33N 38°03' W 122°17'8 7.9
2014-Aug-28 22:29N 38°03' W 122°07'11 8.1
2014-Aug-28 21:11N 38°03' W 121°53'12 0.2
2014-Aug-26 17:29N 38°02' W 122°08'8 9.0
2014-Aug-26 16:33N 38°03' W 122°19'9 9.4
2014-Aug-26 15:33N 37°55' W 122°25'8 7.2
2014-Aug-26 14:27N 37°49' W 122°20'3 3.0
2014-Aug-26 13:33N 37°48' W 122°23'2 1.6
2014-Aug-26 12:33N 37°48' W 122°21'2 2.1
2014-Aug-26 11:31N 37°49' W 122°19'0 0.0
2014-Aug-26 10:31N 37°49' W 122°19'0 0.0
2014-Aug-26 09:31N 37°49' W 122°19'0 0.0
2014-Aug-26 08:31N 37°49' W 122°19'0 0.0
2014-Aug-26 07:31N 37°49' W 122°19'0 0.0
2014-Aug-26 06:31N 37°49' W 122°19'0 0.0
2014-Aug-26 05:31N 37°49' W 122°19'0 0.0
2014-Aug-26 04:31N 37°49' W 122°19'0 0.0
2014-Aug-26 03:31N 37°49' W 122°19'0 0.0
2014-Aug-26 02:28N 37°49' W 122°19'0 0.0
2014-Aug-26 01:31N 37°49' W 122°19'2 1.4
2014-Aug-26 00:26N 37°48' W 122°19'2 1.6
2014-Aug-25 23:28N 37°48' W 122°17'4 4.1
2014-Aug-25 22:29N 37°48' W 122°22'3 2.9
2014-Aug-25 21:29N 37°49' W 122°19'0 0.0
2014-Aug-25 20:32N 37°49' W 122°19'0 0.0
2014-Aug-25 19:29N 37°49' W 122°19'0 0.0
2014-Aug-25 18:29N 37°49' W 122°19'0 0.0
2014-Aug-25 17:32N 37°49' W 122°19'0 0.0
2014-Aug-25 16:29N 37°49' W 122°19'2 1.7
2014-Aug-25 15:33N 37°49' W 122°20'8 7.6
2014-Aug-25 14:32N 37°55' W 122°25'1 0.5
2014-Aug-25 12:33N 37°55' W 122°25'7 7.3
2014-Aug-25 11:33N 37°49' W 122°19'1 0.6
2014-Aug-25 10:29N 37°49' W 122°19'0 0.0
2014-Aug-25 09:29N 37°49' W 122°19'0 0.0
2014-Aug-25 08:29N 37°49' W 122°19'0 0.0
2014-Aug-25 07:32N 37°49' W 122°19'0 0.0
2014-Aug-25 06:32N 37°49' W 122°19'0 0.0
2014-Aug-25 05:29N 37°49' W 122°19'0 0.0
2014-Aug-25 04:26N 37°49' W 122°19'0 0.0
2014-Aug-25 03:32N 37°49' W 122°19'0 0.0
2014-Aug-25 02:32N 37°49' W 122°19'4 4.0
2014-Aug-25 01:33N 37°51' W 122°23'1010.2
2014-Aug-25 00:33N 38°01' W 122°23'8 5.3
2014-Aug-24 23:06N 38°04' W 122°14'6 3.9
2014-Aug-24 21:26N 38°02' W 122°22'8 9.4
2014-Aug-24 20:33N 37°54' W 122°25'7 6.9
2014-Aug-24 19:33N 37°49' W 122°19'0 0.0
2014-Aug-24 18:33N 37°49' W 122°19'0 0.0
2014-Aug-24 17:33N 37°49' W 122°19'0 0.0
2014-Aug-24 16:30N 37°49' W 122°19'0 0.0
2014-Aug-24 15:33N 37°49' W 122°19'0 0.0
2014-Aug-24 14:33N 37°49' W 122°19'0 0.0
2014-Aug-24 13:31N 37°49' W 122°19'2 2.2
2014-Aug-24 12:33N 37°48' W 122°21'2 2.0
2014-Aug-24 11:29N 37°49' W 122°19'0 0.0
2014-Aug-24 10:32N 37°49' W 122°19'0 0.0
2014-Aug-24 09:32N 37°49' W 122°19'0 0.0
2014-Aug-24 08:32N 37°49' W 122°19'0 0.0
2014-Aug-24 07:32N 37°49' W 122°19'0 0.0
2014-Aug-24 06:17N 37°49' W 122°19'0 0.0
2014-Aug-24 05:26N 37°49' W 122°19'0 0.0
2014-Aug-24 04:29N 37°49' W 122°19'1 0.8
2014-Aug-24 03:28N 37°49' W 122°19'1 1.0
2014-Aug-24 02:33N 37°48' W 122°19'1 1.0
2014-Aug-24 01:33N 37°48' W 122°21'1 1.4
2014-Aug-24 00:30N 37°49' W 122°19'1 0.6
2014-Aug-23 23:33N 37°49' W 122°19'0 0.0
2014-Aug-23 22:27N 37°49' W 122°19'0 0.0
2014-Aug-23 21:33N 37°49' W 122°19'0 0.0
2014-Aug-23 20:27N 37°49' W 122°19'0 0.0
2014-Aug-23 19:27N 37°49' W 122°19'0 0.0
2014-Aug-23 03:27N 37°49' W 122°19'0 0.0
2014-Aug-23 02:33N 37°49' W 122°19'0 0.0
2014-Aug-23 01:33N 37°49' W 122°19'0 0.0
2014-Aug-23 00:33N 37°49' W 122°19'0 0.0
2014-Aug-22 23:27N 37°49' W 122°19'0 0.0
2014-Aug-22 22:33N 37°49' W 122°19'0 0.0
2014-Aug-22 21:27N 37°49' W 122°19'0 0.0
2014-Aug-22 20:33N 37°49' W 122°19'0 0.0
2014-Aug-22 19:33N 37°49' W 122°19'0 0.0
2014-Aug-22 18:33N 37°49' W 122°19'0 0.0
2014-Aug-22 17:27N 37°49' W 122°19'0 0.0
2014-Aug-22 16:33N 37°49' W 122°19'0 0.0
2014-Aug-22 15:33N 37°49' W 122°19'0 0.0
2014-Aug-22 14:33N 37°49' W 122°19'0 0.0
2014-Aug-22 13:33N 37°49' W 122°19'2 1.6
2014-Aug-22 12:31N 37°48' W 122°19'0 0.5
2014-Aug-22 11:34N 37°48' W 122°19'1 1.2
2014-Aug-22 10:34N 37°49' W 122°19'1 0.5
2014-Aug-22 09:31N 37°49' W 122°19'0 0.0
2014-Aug-22 08:31N 37°49' W 122°19'0 0.0
2014-Aug-22 07:31N 37°49' W 122°19'0 0.0
2014-Aug-22 06:31N 37°49' W 122°19'0 0.0
2014-Aug-22 05:31N 37°49' W 122°19'0 0.0
2014-Aug-22 04:31N 37°49' W 122°19'0 0.0
2014-Aug-22 03:31N 37°49' W 122°19'0 0.0
2014-Aug-22 02:31N 37°49' W 122°19'0 0.0
2014-Aug-22 01:31N 37°49' W 122°19'0 0.0
2014-Aug-22 00:31N 37°49' W 122°19'0 0.0
2014-Aug-21 23:31N 37°49' W 122°19'0 0.0
2014-Aug-21 22:31N 37°49' W 122°19'0 0.0
2014-Aug-21 21:31N 37°49' W 122°19'0 0.0
2014-Aug-21 20:31N 37°49' W 122°19'0 0.0
2014-Aug-21 19:31N 37°49' W 122°19'0 0.0
2014-Aug-21 18:31N 37°49' W 122°19'0 0.0
2014-Aug-21 17:28N 37°49' W 122°19'0 0.0
2014-Aug-21 16:28N 37°49' W 122°19'0 0.0
2014-Aug-21 15:31N 37°49' W 122°19'0 0.0
2014-Aug-21 14:31N 37°49' W 122°19'4 3.8
2014-Aug-21 13:33N 37°51' W 122°23'4 4.0
2014-Aug-21 12:32N 37°55' W 122°22'1 1.1
2014-Aug-21 11:32N 37°54' W 122°23'0 0.0
2014-Aug-21 10:32N 37°54' W 122°23'0 0.0
2014-Aug-21 09:26N 37°54' W 122°23'0 0.0
2014-Aug-21 08:32N 37°54' W 122°23'0 0.0
2014-Aug-21 07:32N 37°54' W 122°23'0 0.0
2014-Aug-21 06:32N 37°54' W 122°23'0 0.0
2014-Aug-21 05:32N 37°54' W 122°23'0 0.0
2014-Aug-21 04:32N 37°54' W 122°23'0 0.0
2014-Aug-21 03:29N 37°54' W 122°23'1 1.6
2014-Aug-21 02:33N 37°55' W 122°25'7 6.6
2014-Aug-21 01:26N 38°02' W 122°21'11 0.9
2014-Aug-20 14:13N 38°02' W 122°08'1 0.0
2014-Aug-20 01:32N 38°02' W 122°09'8 1.3
2014-Aug-19 19:33N 38°03' W 122°19'  

Dump ship's entire track history